Time;durP1;ratioP1;P1;durP2;ratioP2;P2;SDS_P1;SDS_P2;PMS_P1;PMS_P2;Temp;Humidity;BMP_temperature;BMP_pressure;BME280_temperature;BME280_humidity;BME280_pressure;Samples;Min_cycle;Max_cycle;Signal;HPM_P1;HPM_P2
2022/04/09 00:00:24;;;;;;;;;;;;;;;5.28;72.47;98490.31;5021710;28;20133;-90
2022/04/09 00:02:49;;;;;;;;;;;;;;;5.01;72.70;98490.13;5022131;28;19971;-88
2022/04/09 00:05:15;;;;;;;;;;;;;;;5.12;72.85;98501.84;5021791;28;20295;-88
2022/04/09 00:07:40;;;;;;;;;;;;;;;4.79;73.37;98496.47;5021640;28;19921;-89
2022/04/09 00:10:06;;;;;;;;;;;;;;;5.14;72.35;98509.69;5022821;28;19921;-88
2022/04/09 00:12:32;;;;;;;;;;;;;;;5.30;72.31;98507.06;5041198;28;19921;-89
2022/04/09 00:14:57;;;;;;;;;;;;;;;5.18;72.77;98512.69;5041780;28;19921;-87
2022/04/09 00:17:22;;;;;;;;;;;;;;;5.08;73.69;98521.53;5040901;28;19921;-89
2022/04/09 00:19:48;;;;;;;;;;;;;;;4.87;73.75;98522.19;5041558;28;20137;-87
2022/04/09 00:22:13;;;;;;;;;;;;;;;5.06;73.14;98527.19;5022118;28;19926;-89
2022/04/09 00:24:39;;;;;;;;;;;;;;;5.05;73.21;98527.44;5021503;28;19917;-87
2022/04/09 00:27:04;;;;;;;;;;;;;;;5.05;73.23;98527.44;5022181;28;19947;-88
2022/04/09 00:29:29;;;;;;;;;;;;;;;4.95;73.85;98534.41;5021686;28;20018;-88
2022/04/09 00:31:54;;;;;;;;;;;;;;;5.13;73.93;98537.75;5021222;28;20446;-88
2022/04/09 00:34:19;;;;;;;;;;;;;;;5.06;73.53;98546.09;5029253;28;19925;-88
2022/04/09 00:36:44;;;;;;;;;;;;;;;5.10;73.76;98549.09;5041446;28;19925;-88
2022/04/09 00:39:10;;;;;;;;;;;;;;;4.97;74.11;98547.63;5041514;28;19921;-88
2022/04/09 00:41:35;;;;;;;;;;;;;;;4.95;74.60;98558.72;5028172;28;19929;-89
2022/04/09 00:44:00;;;;;;;;;;;;;;;5.18;74.08;98559.44;5022079;28;19917;-89
2022/04/09 00:46:25;;;;;;;;;;;;;;;5.19;73.96;98560.22;5020486;28;20386;-89
2022/04/09 00:48:51;;;;;;;;;;;;;;;5.08;74.21;98570.16;5021848;28;20388;-88
2022/04/09 00:51:16;;;;;;;;;;;;;;;4.67;74.90;98574.94;5020816;28;19931;-88
2022/04/09 00:53:42;;;;;;;;;;;;;;;5.04;74.82;98575.28;5020169;28;19921;-88
2022/04/09 00:56:20;;;;;;;;;;;;;;;4.86;74.12;98589.97;5020898;28;20237;-87
2022/04/09 00:58:54;;;;;;;;;;;;;;;5.07;75.31;98598.25;5019820;28;19971;-88
2022/04/09 01:01:20;;;;;;;;;;;;;;;5.07;74.68;98596.34;5020640;28;19968;-88
2022/04/09 01:03:46;;;;;;;;;;;;;;;5.04;74.40;98606.88;5021585;28;19978;-89
2022/04/09 01:06:11;;;;;;;;;;;;;;;5.12;74.18;98609.09;5021271;28;19921;-88
2022/04/09 01:08:37;;;;;;;;;;;;;;;4.84;74.73;98614.50;5021052;28;19928;-87
2022/04/09 01:11:02;;;;;;;;;;;;;;;5.02;75.39;98621.44;5020999;28;20050;-88
2022/04/09 01:13:28;;;;;;;;;;;;;;;4.96;75.27;98622.47;5020890;28;20561;-88
2022/04/09 01:15:53;;;;;;;;;;;;;;;4.93;75.80;98631.09;5020725;28;19948;-88
2022/04/09 01:18:22;;;;;;;;;;;;;;;5.01;75.36;98630.63;5021142;28;19921;-88
2022/04/09 01:21:00;;;;;;;;;;;;;;;4.99;74.60;98638.16;5020683;28;19976;-88
2022/04/09 01:23:27;;;;;;;;;;;;;;;4.82;75.57;98643.66;5019629;28;19928;-89
2022/04/09 01:25:52;;;;;;;;;;;;;;;4.96;75.28;98654.06;5020628;28;20318;-88
2022/04/09 01:28:17;;;;;;;;;;;;;;;5.04;75.24;98647.41;5020783;28;19921;-88
2022/04/09 01:30:44;;;;;;;;;;;;;;;5.05;74.71;98646.31;5020144;28;19921;-89
2022/04/09 01:33:15;;;;;;;;;;;;;;;5.03;74.49;98654.69;5038420;28;19925;-89
2022/04/09 01:35:41;;;;;;;;;;;;;;;4.79;75.35;98650.41;5044576;28;20053;-89
2022/04/09 01:38:06;;;;;;;;;;;;;;;4.89;74.82;98656.97;5045064;28;19954;-89
2022/04/09 01:40:31;;;;;;;;;;;;;;;4.95;75.04;98664.06;5039895;28;19925;-88
2022/04/09 01:42:56;;;;;;;;;;;;;;;4.87;74.49;98659.09;5024403;28;19921;-89
2022/04/09 01:45:21;;;;;;;;;;;;;;;4.82;75.41;98667.16;5024467;28;19974;-88
2022/04/09 01:47:46;;;;;;;;;;;;;;;4.72;75.07;98671.38;5023936;28;19940;-88
2022/04/09 01:50:12;;;;;;;;;;;;;;;4.76;76.08;98685.22;5024304;28;20055;-88
2022/04/09 01:52:37;;;;;;;;;;;;;;;4.65;76.23;98697.75;5026741;28;19925;-88
2022/04/09 01:55:03;;;;;;;;;;;;;;;4.95;75.25;98696.47;5044495;28;20287;-89
2022/04/09 01:57:28;;;;;;;;;;;;;;;4.83;75.40;98703.91;5044384;28;19917;-89
2022/04/09 01:59:53;;;;;;;;;;;;;;;4.89;74.85;98700.19;5044344;28;19928;-89
2022/04/09 02:02:18;;;;;;;;;;;;;;;4.83;75.21;98709.31;5022471;28;20295;-88
2022/04/09 02:04:44;;;;;;;;;;;;;;;4.74;75.80;98717.03;5024498;28;20100;-89
2022/04/09 02:07:09;;;;;;;;;;;;;;;4.50;76.09;98720.78;5023984;28;20378;-88
2022/04/09 02:09:34;;;;;;;;;;;;;;;4.57;76.40;98727.91;5023741;28;19932;-89
2022/04/09 02:11:59;;;;;;;;;;;;;;;4.63;75.75;98729.59;5018273;28;19926;-88
2022/04/09 02:14:25;;;;;;;;;;;;;;;4.42;76.64;98726.63;5013809;28;19925;-88
2022/04/09 02:16:50;;;;;;;;;;;;;;;4.43;77.20;98729.06;5022841;28;20344;-89
2022/04/09 02:19:17;;;;;;;;;;;;;;;4.37;76.82;98726.56;5023697;28;19943;-87
2022/04/09 02:21:42;;;;;;;;;;;;;;;4.38;77.06;98733.59;5023516;28;20055;-89
2022/04/09 02:24:09;;;;;;;;;;;;;;;4.53;76.67;98738.38;5022992;28;20004;-88
2022/04/09 02:26:34;;;;;;;;;;;;;;;4.65;76.18;98746.38;5022311;28;19921;-88
2022/04/09 02:29:00;;;;;;;;;;;;;;;4.52;76.57;98753.75;5021836;28;19917;-88
2022/04/09 02:31:25;;;;;;;;;;;;;;;4.42;76.84;98749.03;5022963;28;20340;-88
2022/04/09 02:33:50;;;;;;;;;;;;;;;4.22;77.55;98749.56;5025877;28;19920;-87
2022/04/09 02:36:16;;;;;;;;;;;;;;;3.97;78.66;98748.09;5043851;28;19921;-89
2022/04/09 02:38:42;;;;;;;;;;;;;;;4.32;77.68;98759.69;5019206;28;19917;-89
2022/04/09 02:41:09;;;;;;;;;;;;;;;4.14;78.20;98767.00;5022739;28;20291;-89
2022/04/09 02:43:34;;;;;;;;;;;;;;;4.34;77.54;98770.22;5021568;28;20650;-88
2022/04/09 02:45:59;;;;;;;;;;;;;;;4.18;77.86;98772.72;5023305;28;19917;-88
2022/04/09 02:48:24;;;;;;;;;;;;;;;4.24;78.06;98782.50;5023067;28;19992;-88
2022/04/09 02:50:49;;;;;;;;;;;;;;;4.27;77.70;98792.00;5023030;28;20486;-87
2022/04/09 02:53:15;;;;;;;;;;;;;;;4.43;76.92;98795.75;5022209;28;20018;-88
2022/04/09 02:55:40;;;;;;;;;;;;;;;4.40;77.21;98799.75;5023249;28;20380;-88
2022/04/09 02:58:06;;;;;;;;;;;;;;;4.43;77.57;98806.53;5023160;28;19921;-88
2022/04/09 03:00:31;;;;;;;;;;;;;;;4.34;77.97;98811.53;5022430;28;20420;-89
2022/04/09 03:02:56;;;;;;;;;;;;;;;4.39;78.03;98814.31;5022794;28;19932;-89
2022/04/09 03:08:05;;;;;;;;;;;;;;;4.52;76.63;98828.53;5022207;28;19979;-88
2022/04/09 03:10:31;;;;;;;;;;;;;;;4.32;77.18;98824.47;5022494;28;20019;-89
2022/04/09 03:12:56;;;;;;;;;;;;;;;4.31;76.62;98830.94;5022439;28;20168;-89
2022/04/09 03:15:21;;;;;;;;;;;;;;;4.21;78.03;98818.06;5023344;28;20404;-88
2022/04/09 03:17:47;;;;;;;;;;;;;;;4.36;76.85;98825.59;5020794;28;19920;-88
2022/04/09 03:20:12;;;;;;;;;;;;;;;4.44;76.63;98837.84;5022483;28;19927;-88
2022/04/09 03:22:42;;;;;;;;;;;;;;;4.49;77.15;98831.72;5022489;28;19990;-88
2022/04/09 03:25:08;;;;;;;;;;;;;;;4.25;77.39;98856.19;5022670;28;20458;-88
2022/04/09 03:27:33;;;;;;;;;;;;;;;4.41;76.40;98844.56;5022128;28;20082;-88
2022/04/09 03:29:58;;;;;;;;;;;;;;;4.50;75.92;98847.66;5022240;28;19921;-89
2022/04/09 03:32:24;;;;;;;;;;;;;;;4.63;75.96;98856.50;5021374;28;20493;-88
2022/04/09 03:34:49;;;;;;;;;;;;;;;4.60;76.02;98868.59;5022388;28;20427;-88
2022/04/09 03:37:15;;;;;;;;;;;;;;;4.54;76.44;98869.59;5022936;28;19921;-88
2022/04/09 03:39:41;;;;;;;;;;;;;;;4.65;75.51;98870.56;5021857;28;19921;-88
2022/04/09 03:42:07;;;;;;;;;;;;;;;4.36;76.19;98879.56;5021669;28;20370;-87
2022/04/09 03:44:32;;;;;;;;;;;;;;;4.23;77.10;98886.09;5021681;28;20112;-88
2022/04/09 03:46:58;;;;;;;;;;;;;;;4.52;76.87;98883.34;5021313;28;19944;-89
2022/04/09 03:49:23;;;;;;;;;;;;;;;4.50;76.14;98880.06;5021799;28;20007;-88
2022/04/09 03:51:48;;;;;;;;;;;;;;;4.58;76.37;98891.53;5022277;28;19933;-88
2022/04/09 03:54:15;;;;;;;;;;;;;;;4.38;76.81;98899.03;5020294;28;21263;-89
2022/04/09 03:56:43;;;;;;;;;;;;;;;4.35;76.71;98898.72;5021190;28;20019;-89
2022/04/09 03:59:08;;;;;;;;;;;;;;;4.34;76.20;98905.16;5021964;28;20276;-89
2022/04/09 04:01:33;;;;;;;;;;;;;;;4.27;76.84;98914.25;5021147;28;19944;-88
2022/04/09 04:03:58;;;;;;;;;;;;;;;4.31;77.29;98909.19;5021554;28;19928;-87
2022/04/09 04:06:24;;;;;;;;;;;;;;;4.22;77.14;98911.47;5022144;28;19951;-88
2022/04/09 04:08:49;;;;;;;;;;;;;;;4.45;76.44;98915.09;5021596;28;20221;-87
2022/04/09 04:11:14;;;;;;;;;;;;;;;4.48;76.24;98930.78;5019839;28;20110;-88
2022/04/09 04:13:39;;;;;;;;;;;;;;;4.39;76.03;98930.38;5021856;28;20214;-89
2022/04/09 04:16:05;;;;;;;;;;;;;;;4.40;76.54;98931.19;5021144;28;19971;-88
2022/04/09 04:18:30;;;;;;;;;;;;;;;4.17;76.74;98925.69;5021488;28;19925;-88
2022/04/09 04:20:55;;;;;;;;;;;;;;;4.40;76.30;98939.28;5021242;28;19979;-89
2022/04/09 04:23:23;;;;;;;;;;;;;;;4.07;77.69;98937.09;5021851;28;19924;-88
2022/04/09 04:25:48;;;;;;;;;;;;;;;3.99;77.98;98937.50;5021362;28;19944;-88
2022/04/09 04:28:13;;;;;;;;;;;;;;;4.04;77.72;98943.00;5021832;28;20420;-89
2022/04/09 04:30:38;;;;;;;;;;;;;;;4.14;77.08;98944.22;5020798;28;20391;-88
2022/04/09 04:33:03;;;;;;;;;;;;;;;4.12;76.86;98952.59;5021610;28;20311;-89
2022/04/09 04:35:29;;;;;;;;;;;;;;;4.16;77.46;98966.41;5038291;28;19921;-89
2022/04/09 04:37:54;;;;;;;;;;;;;;;3.95;77.47;98961.44;5039851;28;19917;-88
2022/04/09 04:40:19;;;;;;;;;;;;;;;3.99;77.96;98960.97;5037703;28;20385;-88
2022/04/09 04:42:45;;;;;;;;;;;;;;;4.18;77.28;98975.06;5020847;28;20474;-88
2022/04/09 04:45:11;;;;;;;;;;;;;;;4.22;76.86;98973.53;5021089;28;20604;-88
2022/04/09 04:47:46;;;;;;;;;;;;;;;4.14;77.08;98979.31;5020152;28;19956;-88
2022/04/09 04:50:12;;;;;;;;;;;;;;;3.90;77.76;98987.50;5052864;28;20356;-88
2022/04/09 04:52:37;;;;;;;;;;;;;;;3.95;77.69;98992.97;5020936;28;19928;-88
2022/04/09 04:55:03;;;;;;;;;;;;;;;3.91;77.60;98997.22;5021417;28;19921;-87
2022/04/09 04:57:28;;;;;;;;;;;;;;;4.07;77.27;99007.25;5020652;28;19921;-88
2022/04/09 04:59:55;;;;;;;;;;;;;;;4.05;77.57;99006.66;5019876;28;19921;-88
2022/04/09 05:02:20;;;;;;;;;;;;;;;4.08;76.95;99008.09;5020214;28;19921;-88
2022/04/09 05:04:46;;;;;;;;;;;;;;;4.23;76.89;99015.63;5021077;28;20390;-88
2022/04/09 05:07:11;;;;;;;;;;;;;;;4.49;75.96;99016.13;5022801;28;19921;-87
2022/04/09 05:09:36;;;;;;;;;;;;;;;4.06;76.99;99021.81;5023739;28;20393;-88
2022/04/09 05:12:01;;;;;;;;;;;;;;;4.16;77.30;99023.06;5024791;28;19966;-88
2022/04/09 05:14:26;;;;;;;;;;;;;;;4.14;77.10;99022.47;5023067;28;19917;-88
2022/04/09 05:16:52;;;;;;;;;;;;;;;4.43;76.22;99022.50;5023619;28;20250;-90
2022/04/09 05:19:17;;;;;;;;;;;;;;;4.18;76.90;99034.44;5024210;28;19927;-89
2022/04/09 05:21:45;;;;;;;;;;;;;;;4.21;76.40;99028.53;5022393;28;19925;-88
2022/04/09 05:24:10;;;;;;;;;;;;;;;4.44;75.64;99037.63;5023823;28;20127;-88
2022/04/09 05:29:20;;;;;;;;;;;;;;;4.52;75.57;99047.19;5019604;28;19989;-89
2022/04/09 05:31:46;;;;;;;;;;;;;;;4.52;76.19;99045.31;5024541;28;19926;-90
2022/04/09 05:34:11;;;;;;;;;;;;;;;4.65;75.37;99052.31;5018118;28;19925;-89
2022/04/09 05:36:36;;;;;;;;;;;;;;;4.75;74.70;99042.75;5023601;28;19943;-89
2022/04/09 05:39:02;;;;;;;;;;;;;;;4.60;75.54;99056.78;5024016;28;19967;-89
2022/04/09 05:41:27;;;;;;;;;;;;;;;4.67;75.66;99060.16;5022207;28;19971;-88
2022/04/09 05:43:52;;;;;;;;;;;;;;;4.85;75.88;99050.19;5023311;28;19925;-88
2022/04/09 05:46:19;;;;;;;;;;;;;;;4.59;76.47;99061.38;5024022;28;19925;-88
2022/04/09 05:48:44;;;;;;;;;;;;;;;4.47;76.95;99069.53;5022609;28;19921;-89
2022/04/09 05:51:09;;;;;;;;;;;;;;;4.78;76.62;99078.19;5023996;28;20139;-89
2022/04/09 05:53:34;;;;;;;;;;;;;;;4.80;76.09;99086.03;5013347;28;19929;-88
2022/04/09 05:55:59;;;;;;;;;;;;;;;4.93;75.16;99090.31;5014367;28;19968;-87
2022/04/09 05:58:25;;;;;;;;;;;;;;;4.50;76.61;99098.75;5020120;28;19924;-89
2022/04/09 06:00:50;;;;;;;;;;;;;;;4.34;77.21;99110.28;5016782;28;20323;-89
2022/04/09 06:03:17;;;;;;;;;;;;;;;4.60;77.31;99102.69;5015605;28;19929;-88
2022/04/09 06:05:42;;;;;;;;;;;;;;;4.98;76.26;99103.09;5019874;28;19990;-88
2022/04/09 06:08:08;;;;;;;;;;;;;;;4.98;74.91;99117.41;5023882;28;20335;-88
2022/04/09 06:10:33;;;;;;;;;;;;;;;5.17;74.86;99116.38;5016878;28;20059;-89
2022/04/09 06:12:58;;;;;;;;;;;;;;;5.21;74.72;99118.34;5040189;28;19917;-89
2022/04/09 06:15:23;;;;;;;;;;;;;;;5.10;74.96;99119.25;5023935;28;19917;-89
2022/04/09 06:17:48;;;;;;;;;;;;;;;4.98;74.67;99128.22;5023423;28;19920;-89
2022/04/09 06:20:14;;;;;;;;;;;;;;;4.98;74.23;99136.31;5022981;28;20008;-89
2022/04/09 06:22:39;;;;;;;;;;;;;;;4.85;75.10;99140.16;5024435;28;19917;-88
2022/04/09 06:25:04;;;;;;;;;;;;;;;4.99;74.90;99134.44;5023824;28;20391;-88
2022/04/09 06:27:32;;;;;;;;;;;;;;;4.99;74.84;99150.66;5024207;28;20427;-89
2022/04/09 06:29:57;;;;;;;;;;;;;;;4.71;75.96;99155.00;5023822;28;20011;-88
2022/04/09 06:32:23;;;;;;;;;;;;;;;5.00;76.15;99153.13;5023235;28;20000;-88
2022/04/09 06:34:48;;;;;;;;;;;;;;;4.79;75.22;99157.34;5035769;28;20007;-88
2022/04/09 06:37:13;;;;;;;;;;;;;;;5.01;75.83;99154.78;5043562;28;20287;-86
2022/04/09 06:39:38;;;;;;;;;;;;;;;4.99;75.52;99148.78;5042605;28;19921;-87
2022/04/09 06:42:04;;;;;;;;;;;;;;;5.04;75.29;99158.06;5024499;28;20265;-89
2022/04/09 06:44:29;;;;;;;;;;;;;;;4.93;75.01;99165.13;5024310;28;20350;-88
2022/04/09 06:46:54;;;;;;;;;;;;;;;4.81;75.61;99170.59;5022995;28;19925;-88
2022/04/09 06:49:19;;;;;;;;;;;;;;;4.68;76.07;99167.09;5023080;28;19932;-88
2022/04/09 06:51:45;;;;;;;;;;;;;;;4.66;76.82;99169.22;5022720;28;19987;-87
2022/04/09 06:54:10;;;;;;;;;;;;;;;4.88;76.21;99169.38;5023079;28;20977;-89
2022/04/09 06:56:36;;;;;;;;;;;;;;;4.51;76.86;99170.59;5012717;28;19972;-89
2022/04/09 06:59:03;;;;;;;;;;;;;;;4.99;75.30;99183.91;5011499;28;19931;-88
2022/04/09 07:01:29;;;;;;;;;;;;;;;5.21;74.24;99180.50;5022485;28;20040;-89
2022/04/09 07:03:55;;;;;;;;;;;;;;;5.16;73.68;99187.72;5023555;28;19996;-88
2022/04/09 07:06:20;;;;;;;;;;;;;;;5.27;73.60;99188.72;5021955;28;20019;-88
2022/04/09 07:08:45;;;;;;;;;;;;;;;5.05;73.24;99192.09;5022672;28;19932;-88
2022/04/09 07:11:10;;;;;;;;;;;;;;;5.35;74.34;99191.03;5020795;28;20441;-90
2022/04/09 07:13:36;;;;;;;;;;;;;;;5.76;72.93;99196.28;5020615;28;19922;-88
2022/04/09 07:16:01;;;;;;;;;;;;;;;5.45;72.42;99196.59;5022708;28;20288;-88
2022/04/09 07:18:26;;;;;;;;;;;;;;;5.06;73.82;99204.56;5021767;28;19928;-89
2022/04/09 07:20:52;;;;;;;;;;;;;;;5.18;74.03;99201.81;5022998;28;20495;-88
2022/04/09 07:23:17;;;;;;;;;;;;;;;5.24;74.07;99217.88;5022716;28;19921;-88
2022/04/09 07:25:42;;;;;;;;;;;;;;;5.37;72.75;99224.03;5023014;28;19928;-88
2022/04/09 07:28:09;;;;;;;;;;;;;;;5.68;71.98;99211.03;5022424;28;19921;-86
2022/04/09 07:30:34;;;;;;;;;;;;;;;5.53;71.31;99218.91;5022481;28;20199;-87
2022/04/09 07:32:59;;;;;;;;;;;;;;;5.57;71.70;99228.16;5035869;28;20008;-87
2022/04/09 07:35:25;;;;;;;;;;;;;;;5.43;71.69;99231.16;5025907;28;20368;-86
2022/04/09 07:37:51;;;;;;;;;;;;;;;5.82;69.88;99232.34;5022043;28;20434;-88
2022/04/09 07:40:18;;;;;;;;;;;;;;;6.06;70.78;99226.81;5020994;28;19928;-88
2022/04/09 07:42:44;;;;;;;;;;;;;;;6.16;69.80;99232.34;5035752;28;19925;-88
2022/04/09 07:45:09;;;;;;;;;;;;;;;6.22;69.78;99237.84;5021381;28;19921;-89
2022/04/09 07:47:34;;;;;;;;;;;;;;;6.36;69.88;99249.13;5019678;28;19976;-89
2022/04/09 07:50:00;;;;;;;;;;;;;;;6.33;69.88;99257.75;5020346;28;19917;-88
2022/04/09 07:52:26;;;;;;;;;;;;;;;6.67;68.81;99252.28;5002317;28;19925;-88
2022/04/09 07:54:51;;;;;;;;;;;;;;;6.25;70.16;99267.13;5002044;28;20403;-89
2022/04/09 07:57:16;;;;;;;;;;;;;;;6.25;69.30;99256.28;5002284;28;19921;-89
2022/04/09 07:59:42;;;;;;;;;;;;;;;6.02;71.93;99263.50;5002816;28;19965;-88
2022/04/09 08:02:07;;;;;;;;;;;;;;;6.56;70.78;99262.13;5017119;28;19991;-88
2022/04/09 08:04:32;;;;;;;;;;;;;;;6.58;69.37;99270.84;5022150;28;20258;-89
2022/04/09 08:06:57;;;;;;;;;;;;;;;6.27;71.49;99276.63;5022050;28;19956;-89
2022/04/09 08:09:22;;;;;;;;;;;;;;;6.25;70.97;99277.94;5021224;28;20382;-89
2022/04/09 08:11:48;;;;;;;;;;;;;;;6.36;70.51;99274.34;5021282;28;20064;-88
2022/04/09 08:14:13;;;;;;;;;;;;;;;5.76;73.57;99292.84;5021798;28;20351;-88
2022/04/09 08:16:39;;;;;;;;;;;;;;;5.64;75.62;99301.84;5019597;28;20209;-87
2022/04/09 08:19:04;;;;;;;;;;;;;;;5.25;77.96;99305.19;5019247;28;19921;-88
2022/04/09 08:21:29;;;;;;;;;;;;;;;4.99;79.56;99308.19;5019823;28;19921;-88
2022/04/09 08:23:54;;;;;;;;;;;;;;;5.60;78.02;99308.78;5018585;28;19987;-89
2022/04/09 08:26:20;;;;;;;;;;;;;;;5.54;77.69;99305.19;5018223;28;20526;-89
2022/04/09 08:28:45;;;;;;;;;;;;;;;5.69;78.33;99307.34;5021246;28;20007;-89
2022/04/09 08:31:10;;;;;;;;;;;;;;;5.68;76.68;99308.41;5017533;28;19921;-90
2022/04/09 08:33:35;;;;;;;;;;;;;;;5.58;77.67;99308.22;5016227;28;19921;-89
2022/04/09 08:36:04;;;;;;;;;;;;;;;5.80;77.31;99310.22;5021678;28;20039;-90
2022/04/09 08:38:30;;;;;;;;;;;;;;;6.30;76.55;99307.81;5019160;28;19967;-90
2022/04/09 08:40:55;;;;;;;;;;;;;;;6.68;74.41;99307.25;5018448;28;20323;-89
2022/04/09 08:43:20;;;;;;;;;;;;;;;6.66;73.55;99315.63;5018033;28;20008;-88
2022/04/09 08:45:46;;;;;;;;;;;;;;;6.50;74.88;99311.88;5018589;28;19956;-89
2022/04/09 08:48:11;;;;;;;;;;;;;;;6.42;74.29;99316.66;5013984;28;20400;-89
2022/04/09 08:50:36;;;;;;;;;;;;;;;6.67;73.41;99313.75;5017521;28;19922;-89
2022/04/09 08:53:06;;;;;;;;;;;;;;;5.65;74.74;99327.00;5019439;28;20140;-87
2022/04/09 08:55:35;;;;;;;;;;;;;;;5.93;75.42;99320.75;5023269;28;19921;-88
2022/04/09 08:58:00;;;;;;;;;;;;;;;6.20;76.31;99319.31;5021766;28;19921;-89
2022/04/09 09:00:25;;;;;;;;;;;;;;;6.27;75.23;99311.00;5020435;28;19925;-89
2022/04/09 09:02:54;;;;;;;;;;;;;;;6.62;75.56;99315.31;5020987;28;20135;-89
2022/04/09 09:05:37;;;;;;;;;;;;;;;6.65;73.75;99319.44;5020764;28;20327;-90
2022/04/09 09:08:03;;;;;;;;;;;;;;;6.30;73.75;99321.34;5021985;28;19917;-89
2022/04/09 09:10:28;;;;;;;;;;;;;;;6.56;73.32;99321.72;5022150;28;20460;-89
2022/04/09 09:13:01;;;;;;;;;;;;;;;6.60;74.09;99313.91;5020956;28;20464;-88
2022/04/09 09:15:27;;;;;;;;;;;;;;;6.55;73.44;99317.38;5019309;28;19953;-91
2022/04/09 09:17:56;;;;;;;;;;;;;;;6.83;72.78;99307.47;5020123;28;20402;-90
2022/04/09 09:20:21;;;;;;;;;;;;;;;7.34;70.58;99303.72;5017799;28;20376;-89
2022/04/09 09:22:49;;;;;;;;;;;;;;;7.11;68.51;99316.50;5019175;28;19927;-90
2022/04/09 09:25:14;;;;;;;;;;;;;;;7.49;67.70;99310.38;5021006;28;20412;-90
2022/04/09 09:27:40;;;;;;;;;;;;;;;7.51;66.75;99305.53;5020626;28;20002;-89
2022/04/09 09:30:06;;;;;;;;;;;;;;;7.77;65.28;99300.34;5018714;28;20000;-90
2022/04/09 09:32:31;;;;;;;;;;;;;;;7.82;64.11;99311.25;5020839;28;20464;-91
2022/04/09 09:34:57;;;;;;;;;;;;;;;7.90;64.05;99306.44;5019069;28;19987;-91
2022/04/09 09:37:24;;;;;;;;;;;;;;;8.34;63.64;99304.59;5020222;28;19957;-87
2022/04/09 09:39:49;;;;;;;;;;;;;;;8.06;63.45;99308.19;5020675;28;19917;-90
2022/04/09 09:42:17;;;;;;;;;;;;;;;7.97;61.48;99303.50;5018212;28;20450;-91
2022/04/09 09:44:43;;;;;;;;;;;;;;;7.66;61.40;99320.31;5020851;28;20008;-91
2022/04/09 09:47:08;;;;;;;;;;;;;;;7.69;62.66;99319.78;5003514;28;20040;-89
2022/04/09 09:49:38;;;;;;;;;;;;;;;7.94;61.22;99319.22;5000201;28;20015;-88
2022/04/09 09:52:09;;;;;;;;;;;;;;;8.20;60.31;99325.97;5017340;28;19928;-89
2022/04/09 09:54:53;;;;;;;;;;;;;;;8.14;59.14;99319.66;5022250;28;19921;-90
2022/04/09 09:57:19;;;;;;;;;;;;;;;7.90;60.27;99336.28;5024688;28;19921;-89
2022/04/09 09:59:44;;;;;;;;;;;;;;;7.48;60.16;99335.88;5023435;28;19917;-90
2022/04/09 10:02:14;;;;;;;;;;;;;;;7.62;61.25;99346.31;5023410;28;19928;-89
2022/04/09 10:04:39;;;;;;;;;;;;;;;7.74;61.48;99352.44;5018611;28;19929;-90
2022/04/09 10:09:49;;;;;;;;;;;;;;;6.79;63.28;99362.41;5022603;28;19970;-88
2022/04/09 10:12:18;;;;;;;;;;;;;;;6.79;63.11;99362.41;5025525;28;19972;-90
2022/04/09 10:14:48;;;;;;;;;;;;;;;6.98;63.33;99361.03;5021510;28;19933;-89
2022/04/09 10:17:16;;;;;;;;;;;;;;;7.45;62.06;99361.63;5016192;28;19932;-90
2022/04/09 10:19:42;;;;;;;;;;;;;;;7.79;61.15;99352.47;5031645;28;19928;-90
2022/04/09 10:22:09;;;;;;;;;;;;;;;8.18;60.55;99347.91;5018671;28;19921;-89
2022/04/09 10:24:35;;;;;;;;;;;;;;;8.61;59.16;99352.63;5010903;28;19933;-89
2022/04/09 10:27:04;;;;;;;;;;;;;;;8.44;58.74;99355.47;5022040;28;19925;-88
2022/04/09 10:29:45;;;;;;;;;;;;;;;8.37;57.61;99350.25;5022505;28;19948;-90
2022/04/09 10:32:10;;;;;;;;;;;;;;;8.67;57.60;99359.72;5019289;28;19928;-88
2022/04/09 10:34:50;;;;;;;;;;;;;;;8.54;58.93;99366.41;5021551;28;20485;-89
2022/04/09 10:37:15;;;;;;;;;;;;;;;8.58;58.01;99353.97;5019289;28;20347;-89
2022/04/09 10:39:41;;;;;;;;;;;;;;;9.11;57.59;99353.16;5019944;28;19921;-88
2022/04/09 10:42:07;;;;;;;;;;;;;;;8.92;57.57;99358.25;5020212;28;19940;-89
2022/04/09 10:44:44;;;;;;;;;;;;;;;9.31;56.56;99364.41;5019653;28;19917;-88
2022/04/09 10:47:12;;;;;;;;;;;;;;;8.64;55.82;99363.78;5021374;28;19925;-89
2022/04/09 10:49:37;;;;;;;;;;;;;;;9.17;56.48;99348.56;5018968;28;19926;-89
2022/04/09 10:52:08;;;;;;;;;;;;;;;9.50;55.25;99353.03;5022758;28;20526;-89
2022/04/09 10:54:34;;;;;;;;;;;;;;;9.49;54.66;99354.94;5022468;28;19924;-89
2022/04/09 10:57:09;;;;;;;;;;;;;;;9.86;53.69;99350.41;5023597;28;19925;-88
2022/04/09 10:59:34;;;;;;;;;;;;;;;9.49;54.61;99349.50;5022403;28;19974;-89
2022/04/09 11:02:00;;;;;;;;;;;;;;;9.28;54.46;99340.44;5021330;28;20281;-89
2022/04/09 11:04:28;;;;;;;;;;;;;;;9.21;54.40;99333.34;5022570;28;20418;-90
2022/04/09 11:07:03;;;;;;;;;;;;;;;9.45;53.60;99334.78;5019931;28;19928;-90
2022/04/09 11:09:49;;;;;;;;;;;;;;;9.60;53.08;99347.59;5020688;28;19932;-89
2022/04/09 11:12:28;;;;;;;;;;;;;;;9.71;52.32;99344.91;5020054;28;19921;-89
2022/04/09 11:15:00;;;;;;;;;;;;;;;9.66;52.95;99340.28;5022991;28;19921;-89
2022/04/09 11:17:43;;;;;;;;;;;;;;;9.00;52.88;99329.72;5017949;28;19953;-88
2022/04/09 11:20:10;;;;;;;;;;;;;;;8.69;54.37;99345.88;5022015;28;19936;-91
2022/04/09 11:22:39;;;;;;;;;;;;;;;8.71;53.89;99360.84;5022969;28;20312;-90
2022/04/09 11:25:05;;;;;;;;;;;;;;;8.39;56.50;99391.56;5023010;28;19920;-90
2022/04/09 11:27:31;;;;;;;;;;;;;;;7.70;60.35;99387.41;5023004;28;20032;-90
2022/04/09 11:29:56;;;;;;;;;;;;;;;7.23;62.92;99413.16;5023075;28;20474;-89
2022/04/09 11:32:22;;;;;;;;;;;;;;;6.97;64.42;99440.75;5022349;28;19925;-88
2022/04/09 11:34:50;;;;;;;;;;;;;;;6.89;66.54;99439.25;5020925;28;20011;-88
2022/04/09 11:37:15;;;;;;;;;;;;;;;6.74;67.04;99483.19;5022793;28;19933;-88
2022/04/09 11:39:41;;;;;;;;;;;;;;;6.48;70.38;99481.94;5023257;28;19928;-87
2022/04/09 11:42:07;;;;;;;;;;;;;;;6.27;71.42;99481.56;5022311;28;19971;-88
2022/04/09 11:44:32;;;;;;;;;;;;;;;5.84;71.67;99498.88;5023260;28;19929;-88
2022/04/09 11:47:06;;;;;;;;;;;;;;;5.82;72.62;99490.19;5021520;28;19925;-88
2022/04/09 11:49:31;;;;;;;;;;;;;;;5.58;72.00;99482.13;5019013;28;20431;-87
2022/04/09 11:51:56;;;;;;;;;;;;;;;5.87;73.00;99470.53;5020226;28;19925;-89
2022/04/09 11:54:22;;;;;;;;;;;;;;;6.27;72.59;99466.16;5020141;28;19925;-88
2022/04/09 11:56:47;;;;;;;;;;;;;;;6.49;70.93;99467.34;5021103;28;19917;-89
2022/04/09 11:59:13;;;;;;;;;;;;;;;6.68;70.32;99465.22;5022120;28;19917;-89
2022/04/09 12:01:39;;;;;;;;;;;;;;;7.05;71.11;99463.88;5021284;28;19925;-89
2022/04/09 12:04:04;;;;;;;;;;;;;;;7.14;71.22;99472.41;5021850;28;19944;-89
2022/04/09 12:06:30;;;;;;;;;;;;;;;7.66;70.88;99462.25;5021899;28;20261;-89
2022/04/09 12:08:55;;;;;;;;;;;;;;;7.88;69.56;99469.56;5022454;28;20331;-89
2022/04/09 12:11:20;;;;;;;;;;;;;;;8.52;68.61;99467.19;5019198;28;20261;-90
2022/04/09 12:13:46;;;;;;;;;;;;;;;8.43;68.94;99465.19;5002204;28;20284;-89
2022/04/09 12:16:18;;;;;;;;;;;;;;;8.86;67.76;99473.47;5000918;28;20075;-87
2022/04/09 12:18:44;;;;;;;;;;;;;;;9.34;66.01;99475.41;5002337;28;19932;-88
2022/04/09 12:21:22;;;;;;;;;;;;;;;9.44;65.06;99464.56;5010308;28;20324;-89
2022/04/09 12:24:02;;;;;;;;;;;;;;;9.98;64.15;99455.53;5021233;28;19928;-89
2022/04/09 12:26:28;;;;;;;;;;;;;;;9.91;62.13;99455.78;5021699;28;19921;-90
2022/04/09 12:29:08;;;;;;;;;;;;;;;10.12;62.35;99456.66;5020958;28;19924;-90
2022/04/09 12:31:34;;;;;;;;;;;;;;;9.23;62.68;99441.91;5020993;28;19971;-89
2022/04/09 12:33:59;;;;;;;;;;;;;;;9.05;61.85;99446.66;5019978;28;20326;-89
2022/04/09 12:36:25;;;;;;;;;;;;;;;9.60;62.52;99450.22;5021362;28;20324;-89
2022/04/09 12:38:50;;;;;;;;;;;;;;;10.02;60.81;99445.72;5020454;28;19925;-90
2022/04/09 12:41:15;;;;;;;;;;;;;;;9.99;60.40;99435.34;5020723;28;20192;-88
2022/04/09 12:43:41;;;;;;;;;;;;;;;10.42;60.42;99432.44;5021791;28;19917;-88
2022/04/09 12:46:08;;;;;;;;;;;;;;;10.66;58.36;99439.28;5021098;28;20434;-89
2022/04/09 12:48:43;;;;;;;;;;;;;;;10.56;58.22;99432.72;5021350;28;20111;-89
2022/04/09 12:51:09;;;;;;;;;;;;;;;11.21;57.33;99442.19;5017011;28;19924;-90
2022/04/09 12:53:34;;;;;;;;;;;;;;;11.07;56.74;99428.31;5015158;28;19921;-89
2022/04/09 12:56:03;;;;;;;;;;;;;;;10.34;54.06;99444.69;5016247;28;19975;-90
2022/04/09 12:58:28;;;;;;;;;;;;;;;10.06;55.64;99440.56;5020479;28;19921;-89
2022/04/09 13:01:07;;;;;;;;;;;;;;;10.53;54.68;99433.28;5020173;28;19925;-90